Time;durP1;ratioP1;P1;durP2;ratioP2;P2;SDS_P1;SDS_P2;PMS_P1;PMS_P2;Temp;Humidity;BMP_temperature;BMP_pressure;BME280_temperature;BME280_humidity;BME280_pressure;Samples;Min_cycle;Max_cycle;Signal;HPM_P1;HPM_P2
2022/07/16 00:01:22;;;;;;;;;;;;;;;21.01;52.38;101148.66;1659536;85;25826;-55
2022/07/16 00:01:31;;;;;;;;;;;;;;;21.03;52.41;101150.64;1668619;84;27493;-56
2022/07/16 00:04:00;;;;;;;;;;;;;;;21.04;52.25;101149.60;1661693;85;25914;-55
2022/07/16 00:06:27;;;;;;;;;;;;;;;21.02;52.62;101162.12;1662375;84;25707;-55
2022/07/16 00:08:54;;;;;;;;;;;;;;;20.91;52.83;101163.50;1694794;83;26086;-55
2022/07/16 00:11:22;;;;;;;;;;;;;;;20.84;52.69;101170.80;1703428;82;25809;-56
2022/07/16 00:13:49;;;;;;;;;;;;;;;20.75;52.92;101170.06;1691737;83;27538;-55
2022/07/16 00:16:15;;;;;;;;;;;;;;;20.69;52.82;101172.68;1699804;82;25787;-55
2022/07/16 00:21:28;;;;;;;;;;;;;;;20.74;53.10;101171.09;1703978;83;26112;-56
2022/07/16 00:23:54;;;;;;;;;;;;;;;20.71;53.11;101176.91;1707614;82;25796;-55
2022/07/16 00:26:21;;;;;;;;;;;;;;;20.65;53.29;101174.95;1709863;83;28531;-56
2022/07/16 00:28:48;;;;;;;;;;;;;;;20.61;53.16;101175.86;1685697;83;25737;-56
2022/07/16 00:31:14;;;;;;;;;;;;;;;20.62;53.19;101172.59;1665939;84;25877;-56
2022/07/16 00:33:41;;;;;;;;;;;;;;;20.58;53.53;101169.41;1670012;84;26101;-56
2022/07/16 00:36:08;;;;;;;;;;;;;;;20.50;53.49;101166.80;1669816;84;25732;-56
2022/07/16 00:38:34;;;;;;;;;;;;;;;20.43;53.68;101165.87;1661080;84;27481;-55
2022/07/16 00:41:01;;;;;;;;;;;;;;;20.42;53.49;101160.95;1671321;84;25869;-56
2022/07/16 00:43:28;;;;;;;;;;;;;;;20.47;53.40;101169.94;1664626;83;25711;-54
2022/07/16 00:45:55;;;;;;;;;;;;;;;20.51;53.42;101163.56;1666054;83;26106;-56
2022/07/16 00:48:21;;;;;;;;;;;;;;;20.56;53.36;101169.28;1665905;84;25849;-56
2022/07/16 00:50:48;;;;;;;;;;;;;;;20.57;53.45;101158.18;1664082;83;27409;-56
2022/07/16 00:53:14;;;;;;;;;;;;;;;20.56;53.47;101161.95;1679676;84;25793;-56
2022/07/16 00:55:41;;;;;;;;;;;;;;;20.57;53.26;101166.88;1672890;83;25849;-57
2022/07/16 00:58:08;;;;;;;;;;;;;;;20.57;53.41;101163.64;1668824;85;26097;-56
2022/07/16 01:00:34;;;;;;;;;;;;;;;20.55;53.55;101173.05;1677185;85;25509;-56
2022/07/16 01:03:01;;;;;;;;;;;;;;;20.52;53.50;101178.92;1658738;84;27502;-55
2022/07/16 01:05:28;;;;;;;;;;;;;;;20.49;53.55;101181.49;1681541;83;25798;-55
2022/07/16 01:07:55;;;;;;;;;;;;;;;20.45;53.63;101188.40;1706237;83;25904;-55
2022/07/16 01:10:22;;;;;;;;;;;;;;;20.39;53.59;101183.71;1713952;83;26153;-55
2022/07/16 01:12:50;;;;;;;;;;;;;;;20.35;53.59;101190.05;1703869;83;25776;-55
2022/07/16 01:15:17;;;;;;;;;;;;;;;20.30;53.86;101183.82;1709744;83;28508;-55
2022/07/16 01:17:44;;;;;;;;;;;;;;;20.24;54.02;101187.82;1709238;83;25774;-55
2022/07/16 01:20:11;;;;;;;;;;;;;;;20.18;54.24;101192.99;1706854;83;25455;-55
2022/07/16 01:22:37;;;;;;;;;;;;;;;20.14;54.24;101193.56;1702499;83;26138;-55
2022/07/16 01:25:07;;;;;;;;;;;;;;;20.09;54.65;101190.03;1705429;82;25838;-55
2022/07/16 01:27:34;;;;;;;;;;;;;;;20.05;54.86;101185.13;1697146;83;28288;-55
2022/07/16 01:30:00;;;;;;;;;;;;;;;19.99;55.15;101187.59;1712304;82;25670;-55
2022/07/16 01:32:26;;;;;;;;;;;;;;;19.96;55.20;101190.69;1713843;83;25716;-55
2022/07/16 01:34:53;;;;;;;;;;;;;;;19.92;55.37;101192.63;1698897;82;26119;-56
2022/07/16 01:37:19;;;;;;;;;;;;;;;19.89;55.34;101188.92;1702848;83;25772;-54
2022/07/16 01:39:46;;;;;;;;;;;;;;;19.82;56.07;101192.34;1705974;83;27475;-55
2022/07/16 01:42:12;;;;;;;;;;;;;;;19.73;55.74;101188.55;1711040;83;25719;-54
2022/07/16 01:44:39;;;;;;;;;;;;;;;19.66;56.20;101193.89;1696822;83;25824;-54
2022/07/16 01:47:06;;;;;;;;;;;;;;;19.56;56.78;101190.08;1711784;83;26100;-55
2022/07/16 01:49:35;;;;;;;;;;;;;;;19.40;58.04;101188.34;1699437;83;25708;-55
2022/07/16 01:52:14;;;;;;;;;;;;;;;19.31;57.19;101188.08;1696215;83;28263;-55
2022/07/16 01:54:43;;;;;;;;;;;;;;;19.29;56.96;101194.23;1696617;83;25691;-55
2022/07/16 01:57:10;;;;;;;;;;;;;;;19.27;57.45;101184.88;1706003;81;25902;-55
2022/07/16 01:59:38;;;;;;;;;;;;;;;19.25;57.26;101191.02;1680847;83;26094;-55
2022/07/16 02:02:05;;;;;;;;;;;;;;;19.24;57.31;101188.83;1650334;87;25796;-55
2022/07/16 02:04:33;;;;;;;;;;;;;;;19.18;57.81;101182.75;1663484;85;27635;-55
2022/07/16 02:07:00;;;;;;;;;;;;;;;19.15;58.07;101187.69;1662988;84;26449;-55
2022/07/16 02:09:27;;;;;;;;;;;;;;;19.14;57.75;101194.20;1651256;85;25490;-55
2022/07/16 02:11:54;;;;;;;;;;;;;;;19.13;57.93;101193.88;1647508;85;26067;-55
2022/07/16 02:14:21;;;;;;;;;;;;;;;19.13;57.73;101190.62;1654400;85;25631;-53
2022/07/16 02:16:48;;;;;;;;;;;;;;;19.13;57.98;101190.62;1654963;86;27505;-56
2022/07/16 02:19:14;;;;;;;;;;;;;;;19.11;58.50;101187.75;1652621;86;25718;-55
2022/07/16 02:21:41;;;;;;;;;;;;;;;19.06;58.34;101191.85;1651953;85;26435;-55
2022/07/16 02:24:08;;;;;;;;;;;;;;;19.03;58.35;101199.05;1653452;85;26038;-55
2022/07/16 02:26:35;;;;;;;;;;;;;;;19.02;58.30;101194.62;1652392;86;25684;-53
2022/07/16 02:29:01;;;;;;;;;;;;;;;19.00;58.25;101201.30;1652132;85;27506;-55
2022/07/16 02:31:28;;;;;;;;;;;;;;;18.95;58.50;101200.97;1654397;86;25793;-54
2022/07/16 02:33:54;;;;;;;;;;;;;;;18.92;58.35;101203.02;1654343;85;25829;-55
2022/07/16 02:36:21;;;;;;;;;;;;;;;18.91;58.63;101190.92;1653630;86;27424;-55
2022/07/16 02:38:47;;;;;;;;;;;;;;;18.93;58.78;101200.64;1658159;86;25721;-55
2022/07/16 02:41:14;;;;;;;;;;;;;;;18.91;58.90;101193.64;1652764;85;27485;-55
2022/07/16 02:43:40;;;;;;;;;;;;;;;18.93;58.75;101202.53;1653991;86;25950;-55
2022/07/16 02:46:07;;;;;;;;;;;;;;;18.92;59.13;101203.52;1640994;85;25529;-55
2022/07/16 02:48:34;;;;;;;;;;;;;;;18.94;59.26;101204.23;1648844;85;26341;-54
2022/07/16 02:51:01;;;;;;;;;;;;;;;18.93;59.04;101201.17;1647851;85;27235;-56
2022/07/16 02:53:27;;;;;;;;;;;;;;;18.94;59.48;101205.59;1630383;85;27505;-56
2022/07/16 02:55:54;;;;;;;;;;;;;;;18.91;59.37;101201.33;1656508;86;25785;-55
2022/07/16 02:58:21;;;;;;;;;;;;;;;18.85;60.19;101197.10;1648467;86;25798;-56
2022/07/16 03:00:47;;;;;;;;;;;;;;;18.80;60.04;101207.68;1624229;87;26985;-55
2022/07/16 03:03:14;;;;;;;;;;;;;;;18.81;60.26;101210.25;1625464;87;26127;-56
2022/07/16 03:05:40;;;;;;;;;;;;;;;18.82;60.21;101208.36;1619995;86;27679;-55
2022/07/16 03:08:07;;;;;;;;;;;;;;;18.84;59.88;101205.78;1649917;86;25661;-54
2022/07/16 03:10:34;;;;;;;;;;;;;;;18.88;59.82;101211.71;1638906;87;25886;-53
2022/07/16 03:13:00;;;;;;;;;;;;;;;18.88;59.78;101212.58;1641964;87;26096;-55
2022/07/16 03:15:27;;;;;;;;;;;;;;;18.88;59.67;101208.98;1642563;87;25847;-55
2022/07/16 03:17:53;;;;;;;;;;;;;;;18.88;59.92;101213.94;1642686;86;27455;-55
2022/07/16 03:20:19;;;;;;;;;;;;;;;18.91;59.75;101216.31;1635289;87;26208;-55
2022/07/16 03:22:47;;;;;;;;;;;;;;;18.93;59.68;101217.52;1625709;86;25795;-55
2022/07/16 03:25:15;;;;;;;;;;;;;;;18.94;60.15;101219.22;1634753;87;27174;-55
2022/07/16 03:27:42;;;;;;;;;;;;;;;18.95;59.93;101217.33;1619122;87;26860;-56
2022/07/16 03:30:09;;;;;;;;;;;;;;;18.96;60.20;101218.50;1624529;86;27548;-56
2022/07/16 03:32:36;;;;;;;;;;;;;;;18.98;60.19;101223.80;1630890;87;26414;-55
2022/07/16 03:35:06;;;;;;;;;;;;;;;19.03;60.41;101225.45;1643555;87;25742;-54
2022/07/16 03:37:33;;;;;;;;;;;;;;;19.07;60.36;101225.44;1642505;87;26373;-54
2022/07/16 03:40:00;;;;;;;;;;;;;;;19.12;60.28;101226.26;1642556;87;25848;-56
2022/07/16 03:42:26;;;;;;;;;;;;;;;19.16;60.35;101227.08;1665761;85;27416;-53
2022/07/16 03:44:53;;;;;;;;;;;;;;;19.23;60.27;101220.35;1671159;85;26013;-55
2022/07/16 03:47:19;;;;;;;;;;;;;;;19.27;60.33;101214.05;1658291;85;25692;-55
2022/07/16 03:49:46;;;;;;;;;;;;;;;19.31;60.13;101218.95;1660490;84;26116;-55
2022/07/16 03:52:12;;;;;;;;;;;;;;;19.37;60.04;101216.84;1663169;86;25717;-56
2022/07/16 03:54:39;;;;;;;;;;;;;;;19.42;59.77;101216.80;1657605;85;29548;-55
2022/07/16 03:57:05;;;;;;;;;;;;;;;19.47;59.70;101210.28;1656782;85;25762;-55
2022/07/16 03:59:32;;;;;;;;;;;;;;;19.52;59.78;101206.47;1638439;86;25922;-56
2022/07/16 04:01:58;;;;;;;;;;;;;;;19.56;59.51;101205.09;1633506;87;26112;-56
2022/07/16 04:04:25;;;;;;;;;;;;;;;19.61;59.56;101201.80;1636235;86;25974;-52
2022/07/16 04:06:51;;;;;;;;;;;;;;;19.68;59.33;101200.85;1628223;87;27562;-54
2022/07/16 04:09:18;;;;;;;;;;;;;;;19.76;59.18;101206.75;1643155;87;25672;-53
2022/07/16 04:11:45;;;;;;;;;;;;;;;19.83;58.85;101202.23;1643364;87;25735;-55
2022/07/16 04:14:13;;;;;;;;;;;;;;;19.90;58.61;101205.11;1635644;87;27023;-55
2022/07/16 04:16:41;;;;;;;;;;;;;;;19.93;58.31;101195.69;1641870;87;25872;-54
2022/07/16 04:19:08;;;;;;;;;;;;;;;20.01;58.12;101199.69;1640325;86;27506;-56
2022/07/16 04:21:35;;;;;;;;;;;;;;;20.07;57.95;101199.45;1640629;87;25951;-56
2022/07/16 04:24:01;;;;;;;;;;;;;;;20.13;57.71;101203.65;1637597;87;25471;-55
2022/07/16 04:26:28;;;;;;;;;;;;;;;20.12;57.22;101207.95;1637172;87;26166;-56
2022/07/16 04:28:54;;;;;;;;;;;;;;;20.11;57.11;101207.61;1634994;87;25799;-54
2022/07/16 04:31:21;;;;;;;;;;;;;;;20.12;57.00;101207.95;1622214;87;27489;-55
2022/07/16 04:33:47;;;;;;;;;;;;;;;20.14;56.83;101206.72;1632283;87;25806;-56
2022/07/16 04:36:14;;;;;;;;;;;;;;;20.13;56.58;101210.48;1642886;87;25726;-55
2022/07/16 04:38:41;;;;;;;;;;;;;;;20.14;56.50;101207.22;1642890;87;26745;-56
2022/07/16 04:41:07;;;;;;;;;;;;;;;20.21;56.55;101208.68;1640598;87;25695;-55
2022/07/16 04:43:34;;;;;;;;;;;;;;;20.28;56.52;101207.74;1633421;87;27500;-55
2022/07/16 04:46:00;;;;;;;;;;;;;;;20.37;56.55;101209.00;1641695;85;25834;-56
2022/07/16 04:48:29;;;;;;;;;;;;;;;20.43;56.48;101215.92;1660344;85;25881;-55
2022/07/16 04:50:59;;;;;;;;;;;;;;;20.49;56.49;101217.89;1664661;85;26459;-55
2022/07/16 04:53:25;;;;;;;;;;;;;;;20.57;56.26;101216.08;1659972;84;25646;-56
2022/07/16 04:55:52;;;;;;;;;;;;;;;20.62;56.25;101221.80;1663521;84;27475;-56
2022/07/16 04:58:18;;;;;;;;;;;;;;;20.65;55.72;101230.99;1650465;85;25829;-55
2022/07/16 05:00:45;;;;;;;;;;;;;;;20.67;55.68;101228.92;1633627;86;25721;-56
2022/07/16 05:03:11;;;;;;;;;;;;;;;20.70;55.30;101223.08;1640243;87;26105;-61
2022/07/16 05:05:39;;;;;;;;;;;;;;;20.69;54.92;101223.25;1644258;85;25802;-58
2022/07/16 05:08:08;;;;;;;;;;;;;;;20.71;54.65;101230.75;1649573;85;27482;-55
2022/07/16 05:10:35;;;;;;;;;;;;;;;20.68;54.56;101235.22;1660936;85;25794;-56
2022/07/16 05:13:02;;;;;;;;;;;;;;;20.69;54.60;101221.38;1656461;85;25493;-56
2022/07/16 05:15:30;;;;;;;;;;;;;;;20.73;54.60;101224.58;1657690;85;26121;-56
2022/07/16 05:17:56;;;;;;;;;;;;;;;20.77;54.61;101228.63;1653783;86;25438;-56
2022/07/16 05:20:23;;;;;;;;;;;;;;;20.82;54.25;101220.72;1654907;85;27497;-56
2022/07/16 05:22:49;;;;;;;;;;;;;;;20.86;54.03;101228.84;1664072;85;25725;-56
2022/07/16 05:25:16;;;;;;;;;;;;;;;20.90;54.04;101231.53;1662148;85;25715;-55
2022/07/16 05:27:43;;;;;;;;;;;;;;;20.96;54.07;101232.65;1659615;85;26130;-55
2022/07/16 05:30:11;;;;;;;;;;;;;;;21.02;54.00;101232.40;1666177;85;25782;-55
2022/07/16 05:32:37;;;;;;;;;;;;;;;21.05;53.70;101232.86;1645259;85;28608;-56
2022/07/16 05:35:05;;;;;;;;;;;;;;;21.05;53.41;101228.75;1658483;86;25849;-55
2022/07/16 05:37:32;;;;;;;;;;;;;;;21.06;53.41;101229.58;1658564;85;25822;-55
2022/07/16 05:39:58;;;;;;;;;;;;;;;21.08;53.35;101226.14;1671338;85;26870;-55
2022/07/16 05:42:24;;;;;;;;;;;;;;;21.11;53.31;101227.96;1667155;85;25834;-57
2022/07/16 05:44:51;;;;;;;;;;;;;;;21.11;53.04;101221.66;1669981;86;27527;-56
2022/07/16 05:47:18;;;;;;;;;;;;;;;21.13;52.98;101222.28;1656537;85;25784;-54
2022/07/16 05:49:44;;;;;;;;;;;;;;;21.17;52.83;101220.86;1661926;85;26260;-54
2022/07/16 05:52:11;;;;;;;;;;;;;;;21.22;52.82;101218.38;1661987;85;28187;-55
2022/07/16 05:54:37;;;;;;;;;;;;;;;21.28;52.57;101218.66;1659068;85;25726;-55
2022/07/16 05:57:04;;;;;;;;;;;;;;;21.36;52.30;101218.52;1659237;85;27558;-54
2022/07/16 05:59:30;;;;;;;;;;;;;;;21.43;52.15;101215.30;1642545;86;25816;-55
2022/07/16 06:01:57;;;;;;;;;;;;;;;21.46;52.07;101216.80;1629830;87;25872;-56
2022/07/16 06:04:23;;;;;;;;;;;;;;;21.51;52.00;101205.58;1649561;85;26703;-55
2022/07/16 06:06:50;;;;;;;;;;;;;;;21.55;52.06;101211.00;1656832;85;25672;-56
2022/07/16 06:09:17;;;;;;;;;;;;;;;21.62;52.12;101211.05;1663536;85;27315;-56
2022/07/16 06:11:46;;;;;;;;;;;;;;;21.70;52.07;101214.17;1662545;85;25803;-55
2022/07/16 06:14:12;;;;;;;;;;;;;;;21.76;51.80;101211.17;1656328;85;25636;-55
2022/07/16 06:16:40;;;;;;;;;;;;;;;21.82;51.84;101203.00;1669379;85;26125;-55
2022/07/16 06:19:07;;;;;;;;;;;;;;;21.89;51.74;101202.52;1662575;85;25910;-56
2022/07/16 06:21:36;;;;;;;;;;;;;;;21.97;51.64;101202.86;1626462;86;25783;-55
2022/07/16 06:24:03;;;;;;;;;;;;;;;22.03;51.23;101195.73;1653914;86;25721;-55
2022/07/16 06:26:30;;;;;;;;;;;;;;;22.10;51.32;101205.37;1667306;85;25855;-55
2022/07/16 06:28:57;;;;;;;;;;;;;;;22.19;50.92;101198.67;1655365;85;26965;-56
2022/07/16 06:31:23;;;;;;;;;;;;;;;22.27;50.90;101197.67;1665590;85;25555;-56
2022/07/16 06:33:50;;;;;;;;;;;;;;;22.33;50.77;101195.47;1655395;85;27484;-55
2022/07/16 06:36:16;;;;;;;;;;;;;;;22.44;50.53;101198.17;1672609;84;25870;-55
2022/07/16 06:38:43;;;;;;;;;;;;;;;22.53;49.85;101201.06;1652246;85;25750;-55
2022/07/16 06:41:09;;;;;;;;;;;;;;;22.61;49.95;101198.67;1670657;85;26125;-55
2022/07/16 06:43:36;;;;;;;;;;;;;;;22.68;49.64;101195.42;1658581;85;25920;-56
2022/07/16 06:46:03;;;;;;;;;;;;;;;22.73;49.49;101192.05;1648476;84;27694;-57
2022/07/16 06:48:30;;;;;;;;;;;;;;;22.78;49.08;101195.02;1659543;85;25849;-56
2022/07/16 06:50:57;;;;;;;;;;;;;;;22.79;48.92;101196.70;1660628;86;25740;-57
2022/07/16 06:53:23;;;;;;;;;;;;;;;22.79;48.50;101196.20;1660527;86;26984;-57
2022/07/16 06:55:50;;;;;;;;;;;;;;;22.86;48.78;101193.44;1655753;86;25311;-56
2022/07/16 06:58:16;;;;;;;;;;;;;;;22.96;48.46;101196.63;1659384;85;27479;-57
2022/07/16 07:00:45;;;;;;;;;;;;;;;23.06;48.45;101195.38;1661454;85;25840;-55
2022/07/16 07:03:13;;;;;;;;;;;;;;;23.18;47.69;101184.62;1657906;85;25880;-55
2022/07/16 07:05:40;;;;;;;;;;;;;;;23.28;47.50;101183.72;1664478;85;26935;-55
2022/07/16 07:08:06;;;;;;;;;;;;;;;23.38;47.09;101186.05;1648914;85;25779;-56
2022/07/16 07:10:33;;;;;;;;;;;;;;;23.44;47.12;101184.66;1655963;85;28276;-57
2022/07/16 07:12:59;;;;;;;;;;;;;;;23.50;46.91;101184.34;1652365;85;26322;-56
2022/07/16 07:15:27;;;;;;;;;;;;;;;23.53;46.51;101179.81;1671381;85;25680;-56
2022/07/16 07:17:54;;;;;;;;;;;;;;;23.56;46.25;101186.77;1669064;85;26909;-56
2022/07/16 07:20:20;;;;;;;;;;;;;;;23.59;46.43;101185.81;1659283;85;25838;-56
2022/07/16 07:22:47;;;;;;;;;;;;;;;23.69;46.38;101191.40;1659386;85;27210;-56
2022/07/16 07:25:14;;;;;;;;;;;;;;;23.78;46.49;101189.28;1656981;86;25715;-55
2022/07/16 07:27:41;;;;;;;;;;;;;;;23.87;46.42;101184.71;1669725;85;25823;-56
2022/07/16 07:30:09;;;;;;;;;;;;;;;24.02;45.40;101189.16;1656945;85;26093;-57
2022/07/16 07:32:35;;;;;;;;;;;;;;;24.12;45.57;101179.08;1664126;85;25715;-56
2022/07/16 07:35:02;;;;;;;;;;;;;;;24.17;45.38;101185.62;1652816;85;27588;-56
2022/07/16 07:37:31;;;;;;;;;;;;;;;24.27;44.63;101191.19;1656706;85;26573;-57
2022/07/16 07:39:59;;;;;;;;;;;;;;;24.39;44.35;101196.30;1645024;86;25853;-56
2022/07/16 07:42:26;;;;;;;;;;;;;;;24.49;44.16;101190.35;1639053;86;26269;-56
2022/07/16 07:44:53;;;;;;;;;;;;;;;24.59;43.93;101184.37;1637006;86;25812;-56
2022/07/16 07:47:23;;;;;;;;;;;;;;;24.66;43.63;101177.78;1629877;85;27511;-55
2022/07/16 07:49:50;;;;;;;;;;;;;;;24.79;43.22;101171.89;1642807;87;25724;-57
2022/07/16 07:52:16;;;;;;;;;;;;;;;24.95;43.61;101171.39;1642835;86;25882;-56
2022/07/16 07:54:43;;;;;;;;;;;;;;;25.10;43.01;101161.95;1636049;86;26196;-57
2022/07/16 07:57:09;;;;;;;;;;;;;;;25.22;43.42;101167.05;1625209;87;25815;-55
2022/07/16 07:59:36;;;;;;;;;;;;;;;25.35;43.26;101161.11;1640869;86;27512;-56
2022/07/16 08:02:02;;;;;;;;;;;;;;;25.46;42.77;101165.91;1646253;87;25863;-56
2022/07/16 08:04:29;;;;;;;;;;;;;;;25.58;43.04;101166.88;1661790;85;25798;-55
2022/07/16 08:06:55;;;;;;;;;;;;;;;25.71;42.77;101159.00;1668524;85;26185;-56
2022/07/16 08:09:22;;;;;;;;;;;;;;;25.82;41.00;101153.27;1671265;85;25705;-56
2022/07/16 08:11:48;;;;;;;;;;;;;;;25.86;40.68;101148.99;1664787;85;27482;-55
2022/07/16 08:14:15;;;;;;;;;;;;;;;25.95;41.56;101148.13;1648127;85;25914;-56
2022/07/16 08:16:42;;;;;;;;;;;;;;;26.04;41.40;101142.62;1651968;85;25731;-55
2022/07/16 08:19:10;;;;;;;;;;;;;;;26.15;40.03;101142.95;1653939;85;26117;-55
2022/07/16 08:21:36;;;;;;;;;;;;;;;26.22;38.79;101141.77;1652867;85;25933;-55
2022/07/16 08:26:49;;;;;;;;;;;;;;;26.34;39.48;101145.13;1627437;86;25903;-55
2022/07/16 08:29:16;;;;;;;;;;;;;;;26.45;38.60;101145.73;1649684;85;25728;-56
2022/07/16 08:31:42;;;;;;;;;;;;;;;26.54;37.94;101147.61;1653892;85;26153;-55
2022/07/16 08:34:09;;;;;;;;;;;;;;;26.60;38.15;101145.31;1653581;85;25826;-56
2022/07/16 08:36:36;;;;;;;;;;;;;;;26.71;38.32;101154.70;1653249;85;28149;-56
2022/07/16 08:39:03;;;;;;;;;;;;;;;26.78;37.31;101149.95;1647709;85;26045;-55
2022/07/16 08:41:29;;;;;;;;;;;;;;;26.80;36.18;101149.73;1653913;86;25715;-56
2022/07/16 08:43:59;;;;;;;;;;;;;;;26.79;35.76;101148.87;1622384;86;26200;-57
2022/07/16 08:46:27;;;;;;;;;;;;;;;26.73;36.97;101135.99;1655635;86;25420;-55
2022/07/16 08:48:54;;;;;;;;;;;;;;;26.78;36.44;101122.90;1665114;85;28199;-56
2022/07/16 08:51:29;;;;;;;;;;;;;;;26.88;36.00;101124.55;1664395;84;25808;-56
2022/07/16 08:53:52;;;;;;;;;;;;;;;27.02;36.97;101132.91;1660827;84;25765;-56
2022/07/16 08:56:19;;;;;;;;;;;;;;;27.20;36.28;101134.44;1664513;85;26138;-56
2022/07/16 08:58:45;;;;;;;;;;;;;;;27.34;35.29;101127.03;1645115;85;25700;-56
2022/07/16 09:01:11;;;;;;;;;;;;;;;27.44;35.79;101122.86;1630543;86;27501;-54
2022/07/16 09:03:38;;;;;;;;;;;;;;;27.71;35.38;101123.22;1633038;87;26319;-55
2022/07/16 09:06:05;;;;;;;;;;;;;;;28.04;35.03;101126.39;1639747;87;25798;-55
2022/07/16 09:08:32;;;;;;;;;;;;;;;28.39;33.39;101126.28;1636765;87;26164;-56
2022/07/16 09:11:02;;;;;;;;;;;;;;;28.73;34.08;101132.47;1642165;87;25792;-55
2022/07/16 09:13:29;;;;;;;;;;;;;;;29.10;34.17;101117.29;1627815;87;27565;-55
2022/07/16 09:16:00;;;;;;;;;;;;;;;29.58;31.98;101120.55;1643254;87;25900;-55
2022/07/16 09:18:26;;;;;;;;;;;;;;;29.79;31.38;101119.72;1642968;87;25798;-57
2022/07/16 09:21:00;;;;;;;;;;;;;;;29.82;31.92;101120.61;1627212;86;27143;-56
2022/07/16 09:23:32;;;;;;;;;;;;;;;29.83;31.39;101115.88;1639215;87;25509;-55
2022/07/16 09:26:04;;;;;;;;;;;;;;;29.87;31.83;101105.97;1616483;87;27056;-55
2022/07/16 09:28:43;;;;;;;;;;;;;;;29.87;31.78;101106.50;1638128;86;25759;-56
2022/07/16 09:31:11;;;;;;;;;;;;;;;29.93;32.25;101106.91;1623180;87;25843;-55
2022/07/16 09:33:38;;;;;;;;;;;;;;;30.35;29.27;101104.88;1628423;87;26280;-56
2022/07/16 09:36:07;;;;;;;;;;;;;;;30.49;30.77;101101.67;1631534;87;25775;-55
2022/07/16 09:38:51;;;;;;;;;;;;;;;30.44;30.10;101101.92;1624057;87;27101;-56
2022/07/16 09:41:19;;;;;;;;;;;;;;;30.26;30.53;101092.01;1631725;87;25747;-55
2022/07/16 09:43:46;;;;;;;;;;;;;;;30.29;31.17;101097.05;1622519;86;25932;-56
2022/07/16 09:46:19;;;;;;;;;;;;;;;30.68;29.98;101084.95;1636146;86;26194;-56
2022/07/16 09:48:47;;;;;;;;;;;;;;;30.93;29.95;101089.61;1668238;85;25807;-55
2022/07/16 09:51:22;;;;;;;;;;;;;;;31.41;30.12;101079.95;1649451;85;27480;-61
2022/07/16 09:53:50;;;;;;;;;;;;;;;32.03;29.32;101077.47;1664786;85;25781;-61
2022/07/16 09:56:24;;;;;;;;;;;;;;;32.57;27.75;101077.61;1662913;85;25533;-60
2022/07/16 09:58:54;;;;;;;;;;;;;;;32.98;27.70;101079.59;1638614;85;26184;-62
2022/07/16 10:01:20;;;;;;;;;;;;;;;33.59;27.37;101083.38;1624870;87;25744;-61
2022/07/16 10:03:49;;;;;;;;;;;;;;;34.17;26.92;101081.45;1629655;87;27463;-61
2022/07/16 10:06:17;;;;;;;;;;;;;;;34.56;24.37;101068.64;1647484;85;25886;-60
2022/07/16 10:08:45;;;;;;;;;;;;;;;34.62;25.33;101068.31;1655181;85;25844;-62
2022/07/16 10:11:12;;;;;;;;;;;;;;;34.41;25.11;101064.85;1634620;85;26101;-62
2022/07/16 10:13:43;;;;;;;;;;;;;;;34.64;25.17;101067.47;1656208;85;25791;-61
2022/07/16 10:16:10;;;;;;;;;;;;;;;34.82;23.96;101069.27;1658280;85;27532;-61
2022/07/16 10:18:46;;;;;;;;;;;;;;;34.66;24.19;101074.15;1636572;86;25623;-62
2022/07/16 10:21:15;;;;;;;;;;;;;;;34.85;23.20;101072.03;1635568;87;25978;-62
2022/07/16 10:23:45;;;;;;;;;;;;;;;35.08;24.35;101070.45;1620672;87;26116;-62
2022/07/16 10:26:18;;;;;;;;;;;;;;;35.75;23.47;101057.09;1634987;87;25901;-61
2022/07/16 10:28:54;;;;;;;;;;;;;;;36.20;23.18;101060.98;1655414;86;27665;-62
2022/07/16 10:31:34;;;;;;;;;;;;;;;36.52;22.12;101053.78;1650543;86;25877;-61
2022/07/16 10:34:33;;;;;;;;;;;;;;;37.05;22.61;101039.14;1640016;86;25920;-61
2022/07/16 10:37:01;;;;;;;;;;;;;;;37.81;21.56;101040.13;1650294;84;29845;-62
2022/07/16 10:39:28;;;;;;;;;;;;;;;38.39;20.32;101039.69;1635467;84;26131;-59
2022/07/16 10:42:05;;;;;;;;;;;;;;;38.59;20.37;101031.30;1652927;86;27510;-60
2022/07/16 10:44:46;;;;;;;;;;;;;;;39.20;20.64;101035.87;1646247;85;27294;-62
2022/07/16 10:47:14;;;;;;;;;;;;;;;39.31;19.95;101025.76;1667690;84;25784;-61
2022/07/16 10:49:41;;;;;;;;;;;;;;;38.31;20.14;101023.83;1664833;84;26746;-60
2022/07/16 10:52:18;;;;;;;;;;;;;;;37.32;20.56;101018.70;1662640;84;25775;-60
2022/07/16 10:54:54;;;;;;;;;;;;;;;36.71;21.27;101014.52;1664484;84;27493;-61
2022/07/16 10:57:24;;;;;;;;;;;;;;;36.64;21.50;101016.86;1664459;84;26061;-60
2022/07/16 10:59:51;;;;;;;;;;;;;;;36.49;21.80;101004.80;1638546;85;25918;-60
2022/07/16 11:02:18;;;;;;;;;;;;;;;36.43;21.89;101004.63;1636381;86;26129;-60
2022/07/16 11:04:49;;;;;;;;;;;;;;;36.14;22.10;101006.18;1641336;85;25826;-61
2022/07/16 11:07:19;;;;;;;;;;;;;;;36.44;22.14;101000.70;1647290;86;26902;-61
2022/07/16 11:09:48;;;;;;;;;;;;;;;37.02;22.02;100998.53;1638886;86;25482;-61
2022/07/16 11:12:18;;;;;;;;;;;;;;;36.91;21.63;100996.52;1610286;87;25845;-61
2022/07/16 11:14:47;;;;;;;;;;;;;;;36.81;21.44;100996.09;1616618;87;26158;-61
2022/07/16 11:17:16;;;;;;;;;;;;;;;36.37;21.37;100989.00;1631116;86;25795;-61
2022/07/16 11:19:50;;;;;;;;;;;;;;;36.30;21.57;100981.02;1635644;85;27390;-61
2022/07/16 11:22:22;;;;;;;;;;;;;;;36.22;21.06;100969.08;1618112;87;25732;-60
2022/07/16 11:24:52;;;;;;;;;;;;;;;35.76;21.59;100966.42;1627826;86;26547;-61
2022/07/16 11:27:18;;;;;;;;;;;;;;;35.44;22.19;100964.35;1626687;86;26094;-61
2022/07/16 11:29:45;;;;;;;;;;;;;;;35.36;22.39;100968.63;1606250;87;25896;-61
2022/07/16 11:32:15;;;;;;;;;;;;;;;34.97;22.69;100973.27;1625619;86;27487;-61
2022/07/16 11:34:42;;;;;;;;;;;;;;;34.69;22.98;100967.41;1629577;87;25721;-60
2022/07/16 11:37:08;;;;;;;;;;;;;;;34.52;23.43;100962.84;1629353;86;25763;-61
2022/07/16 11:39:35;;;;;;;;;;;;;;;34.40;23.63;100961.80;1624553;86;26105;-61
2022/07/16 11:42:02;;;;;;;;;;;;;;;34.34;24.03;100963.77;1631344;86;25961;-60
2022/07/16 11:44:30;;;;;;;;;;;;;;;34.35;24.19;100962.64;1628897;87;27436;-61
2022/07/16 11:47:00;;;;;;;;;;;;;;;34.26;24.51;100965.25;1643960;85;43387;-61
2022/07/16 11:49:31;;;;;;;;;;;;;;;35.08;23.90;100956.66;1648166;85;25511;-61
2022/07/16 11:52:03;;;;;;;;;;;;;;;36.23;22.94;100946.94;1641809;85;27039;-61
2022/07/16 11:54:31;;;;;;;;;;;;;;;36.31;22.30;100948.22;1640808;85;25942;-60
2022/07/16 11:56:57;;;;;;;;;;;;;;;36.29;22.50;100955.55;1621425;86;27555;-59
2022/07/16 11:59:27;;;;;;;;;;;;;;;36.23;21.77;100955.93;1656447;85;25796;-60
2022/07/16 12:01:59;;;;;;;;;;;;;;;36.07;20.69;100958.14;1667311;85;25891;-61
2022/07/16 12:04:35;;;;;;;;;;;;;;;36.44;20.20;100958.68;1657081;84;26150;-62
2022/07/16 12:07:03;;;;;;;;;;;;;;;37.31;20.10;100948.87;1658033;85;25822;-61
2022/07/16 12:09:36;;;;;;;;;;;;;;;38.21;19.76;100949.63;1660855;85;27475;-61
2022/07/16 12:12:06;;;;;;;;;;;;;;;39.26;18.49;100956.41;1659968;85;25853;-61
2022/07/16 12:14:50;;;;;;;;;;;;;;;40.09;17.90;100936.89;1659226;85;25786;-61
2022/07/16 12:17:23;;;;;;;;;;;;;;;40.65;16.87;100946.86;1651281;84;26231;-61
2022/07/16 12:20:21;;;;;;;;;;;;;;;41.20;16.29;100946.52;1636544;86;25864;-61
2022/07/16 12:23:02;;;;;;;;;;;;;;;41.67;16.83;100934.23;1631668;86;28943;-62
2022/07/16 12:25:35;;;;;;;;;;;;;;;42.26;16.12;100945.67;1629893;86;25517;-61
2022/07/16 12:28:11;;;;;;;;;;;;;;;41.53;16.09;100935.12;1632679;87;25771;-61
2022/07/16 12:30:45;;;;;;;;;;;;;;;41.39;17.22;100933.34;1619358;86;26133;-61
2022/07/16 12:33:32;;;;;;;;;;;;;;;41.02;16.25;100941.52;1628814;87;25834;-62
2022/07/16 12:36:02;;;;;;;;;;;;;;;40.65;16.75;100930.75;1636441;86;27503;-62
2022/07/16 12:38:54;;;;;;;;;;;;;;;41.27;16.54;100930.46;1602947;87;25479;-61
2022/07/16 12:41:27;;;;;;;;;;;;;;;41.97;16.61;100917.80;1616677;87;26030;-62
2022/07/16 12:44:01;;;;;;;;;;;;;;;42.80;15.77;100921.55;1643424;85;27116;-62